Time;durP1;ratioP1;P1;durP2;ratioP2;P2;SDS_P1;SDS_P2;PMS_P1;PMS_P2;Temp;Humidity;BMP_temperature;BMP_pressure;BME280_temperature;BME280_humidity;BME280_pressure;Samples;Min_cycle;Max_cycle;Signal;HPM_P1;HPM_P2
2023/08/22 00:01:14;;;;;;;1.10;1.10;;;16.80;99.90;;;;;;4983038;28;20108;-85
2023/08/22 00:03:40;;;;;;;1.10;1.10;;;16.70;99.90;;;;;;4967137;28;20050;-86
2023/08/22 00:06:06;;;;;;;1.00;1.00;;;16.60;99.90;;;;;;4962436;28;20050;-85
2023/08/22 00:08:31;;;;;;;1.02;1.02;;;16.80;99.90;;;;;;4961553;28;20034;-85
2023/08/22 00:10:59;;;;;;;1.10;1.10;;;16.90;99.90;;;;;;4955983;28;20125;-85
2023/08/22 00:13:24;;;;;;;1.23;1.23;;;17.00;99.90;;;;;;4982808;28;20057;-85
2023/08/22 00:15:50;;;;;;;1.20;1.20;;;16.80;99.90;;;;;;4959396;28;20046;-86
2023/08/22 00:18:15;;;;;;;1.20;1.20;;;17.10;99.90;;;;;;4965178;28;20050;-85
2023/08/22 00:20:41;;;;;;;1.20;1.20;;;16.90;99.90;;;;;;4962280;28;20060;-86
2023/08/22 00:23:07;;;;;;;1.20;1.20;;;16.90;99.90;;;;;;4960832;28;20054;-85
2023/08/22 00:25:32;;;;;;;1.17;1.17;;;17.10;99.90;;;;;;4960852;28;20054;-87
2023/08/22 00:27:58;;;;;;;1.27;1.27;;;17.00;99.90;;;;;;4966200;28;20484;-85
2023/08/22 00:30:29;;;;;;;1.20;1.20;;;17.00;99.90;;;;;;4958454;28;20511;-86
2023/08/22 00:32:55;;;;;;;1.27;1.27;;;16.90;99.90;;;;;;4960409;28;20046;-85
2023/08/22 00:35:24;;;;;;;1.27;1.27;;;17.10;99.90;;;;;;4978873;28;20054;-84
2023/08/22 00:37:50;;;;;;;1.25;1.25;;;17.10;99.90;;;;;;4982868;28;20069;-85
2023/08/22 00:40:15;;;;;;;1.17;1.17;;;17.20;99.90;;;;;;4983808;28;20412;-85
2023/08/22 00:42:41;;;;;;;1.20;1.20;;;17.10;99.90;;;;;;4960045;28;20038;-86
2023/08/22 00:45:07;;;;;;;1.80;1.70;;;17.00;99.90;;;;;;4964774;28;20077;-85
2023/08/22 00:47:35;;;;;;;1.80;1.70;;;17.20;99.90;;;;;;4961127;28;20512;-85
2023/08/22 00:50:03;;;;;;;1.90;1.80;;;17.20;99.90;;;;;;4959187;28;20042;-85
2023/08/22 00:52:29;;;;;;;1.95;1.85;;;17.10;99.90;;;;;;4941271;28;20142;-85
2023/08/22 00:54:58;;;;;;;1.90;1.80;;;17.20;99.90;;;;;;4962720;28;20039;-86
2023/08/22 00:57:24;;;;;;;1.90;1.80;;;17.10;99.90;;;;;;4981935;28;20034;-85
2023/08/22 00:59:50;;;;;;;1.92;1.83;;;17.20;99.90;;;;;;4961616;28;20062;-84
2023/08/22 01:02:16;;;;;;;1.90;1.80;;;17.10;99.90;;;;;;4984774;28;20074;-85
2023/08/22 01:04:45;;;;;;;1.95;1.85;;;17.20;99.90;;;;;;4985300;28;20124;-86
2023/08/22 01:07:24;;;;;;;1.90;1.80;;;17.10;99.90;;;;;;4984206;28;20049;-86
2023/08/22 01:10:06;;;;;;;1.98;1.88;;;17.10;99.90;;;;;;4959862;28;20060;-85
2023/08/22 01:12:41;;;;;;;1.83;1.73;;;17.10;99.90;;;;;;4981791;28;20061;-86
2023/08/22 01:15:20;;;;;;;1.80;1.70;;;17.20;99.90;;;;;;4960848;28;20081;-86
2023/08/22 01:17:48;;;;;;;1.90;1.80;;;17.20;99.90;;;;;;4965259;28;20081;-86
2023/08/22 01:20:43;;;;;;;1.92;1.83;;;17.10;99.90;;;;;;4962335;28;20566;-86
2023/08/22 01:23:12;;;;;;;2.00;1.90;;;17.20;99.90;;;;;;4953980;28;20058;-85
2023/08/22 01:25:37;;;;;;;2.00;1.90;;;17.10;99.90;;;;;;4965524;28;20104;-86
2023/08/22 01:28:37;;;;;;;2.00;1.90;;;17.10;99.90;;;;;;4963560;28;20046;-85
2023/08/22 01:31:14;;;;;;;1.85;1.75;;;17.00;99.90;;;;;;4964177;28;20073;-85
2023/08/22 01:33:53;;;;;;;1.85;1.75;;;17.10;99.90;;;;;;4966964;28;20046;-85
2023/08/22 01:36:20;;;;;;;1.92;1.83;;;17.10;99.90;;;;;;4981151;28;20499;-85
2023/08/22 01:38:48;;;;;;;1.95;1.85;;;17.00;99.90;;;;;;4954357;28;20050;-86
2023/08/22 01:41:15;;;;;;;2.05;1.95;;;17.00;99.90;;;;;;4963654;28;20049;-85
2023/08/22 01:43:43;;;;;;;1.92;1.83;;;16.90;99.90;;;;;;4964686;28;20046;-85
2023/08/22 01:46:09;;;;;;;1.98;1.88;;;16.90;99.90;;;;;;4960542;28;20046;-85
2023/08/22 01:48:35;;;;;;;2.05;1.95;;;16.80;99.90;;;;;;4958505;28;20057;-85
2023/08/22 01:51:01;;;;;;;2.13;2.03;;;16.90;99.90;;;;;;4963059;28;20047;-85
2023/08/22 01:53:27;;;;;;;2.13;2.03;;;16.80;99.90;;;;;;4960951;28;20061;-85
2023/08/22 01:55:52;;;;;;;2.05;1.95;;;16.80;99.90;;;;;;4952800;28;20046;-85
2023/08/22 01:58:18;;;;;;;2.17;2.08;;;17.00;99.90;;;;;;4957337;28;21421;-85
2023/08/22 02:00:45;;;;;;;2.13;2.03;;;16.90;99.90;;;;;;4947382;28;20551;-86
2023/08/22 02:03:13;;;;;;;2.13;2.03;;;16.80;99.90;;;;;;4953667;28;20046;-87
2023/08/22 02:05:41;;;;;;;2.15;2.05;;;16.90;99.90;;;;;;4956548;28;20053;-87
2023/08/22 02:08:12;;;;;;;2.17;2.08;;;16.90;99.90;;;;;;4961448;28;20142;-87
2023/08/22 02:10:44;;;;;;;2.20;2.10;;;16.90;99.90;;;;;;4937644;28;20066;-87
2023/08/22 02:13:09;;;;;;;2.22;2.13;;;16.90;99.90;;;;;;4943969;28;20051;-86
2023/08/22 02:15:40;;;;;;;2.17;2.08;;;17.00;99.90;;;;;;4965645;28;20105;-87
2023/08/22 02:18:06;;;;;;;2.20;2.10;;;17.00;99.90;;;;;;4950384;28;20476;-88
2023/08/22 02:20:31;;;;;;;2.25;2.15;;;17.20;99.90;;;;;;4944266;28;20125;-88
2023/08/22 02:23:02;;;;;;;2.17;2.08;;;17.10;99.90;;;;;;4966861;28;20050;-86
2023/08/22 02:25:29;;;;;;;2.20;2.10;;;17.10;99.90;;;;;;4963286;28;22692;-87
2023/08/22 02:27:58;;;;;;;2.10;2.00;;;17.20;99.90;;;;;;4983290;28;20710;-87
2023/08/22 02:30:30;;;;;;;2.10;2.00;;;17.20;99.90;;;;;;4956340;28;20085;-87
2023/08/22 02:33:01;;;;;;;2.05;1.95;;;17.20;99.90;;;;;;4964750;28;20046;-87
2023/08/22 02:35:36;;;;;;;2.15;2.05;;;17.30;99.90;;;;;;4954997;28;20054;-88
2023/08/22 02:38:07;;;;;;;2.08;1.98;;;17.30;99.90;;;;;;4981416;28;20046;-88
2023/08/22 02:40:39;;;;;;;2.10;2.00;;;17.20;99.90;;;;;;4958461;28;20046;-87
2023/08/22 02:43:08;;;;;;;2.15;2.05;;;17.00;99.90;;;;;;4957908;28;20407;-87
2023/08/22 02:45:43;;;;;;;2.25;2.15;;;17.00;99.90;;;;;;4946495;28;20051;-87
2023/08/22 02:48:12;;;;;;;2.05;1.95;;;17.00;99.90;;;;;;4964986;28;20117;-87
2023/08/22 02:50:38;;;;;;;2.03;1.92;;;17.00;99.90;;;;;;4959257;28;20447;-86
2023/08/22 02:53:09;;;;;;;2.08;1.98;;;16.80;99.90;;;;;;4956503;28;20081;-87
2023/08/22 02:55:38;;;;;;;2.05;1.95;;;16.70;99.90;;;;;;4957367;28;20764;-87
2023/08/22 02:58:05;;;;;;;2.00;1.90;;;16.80;99.90;;;;;;4987472;28;20049;-86
2023/08/22 03:00:33;;;;;;;1.98;1.88;;;16.70;99.90;;;;;;4965422;28;20053;-86
2023/08/22 03:03:05;;;;;;;1.90;1.80;;;16.80;99.90;;;;;;4986137;28;20510;-86
2023/08/22 03:05:36;;;;;;;1.90;1.80;;;16.80;99.90;;;;;;4958887;28;20046;-86
2023/08/22 03:08:03;;;;;;;1.80;1.70;;;16.60;99.90;;;;;;4963562;28;20117;-86
2023/08/22 03:10:28;;;;;;;1.77;1.67;;;16.60;99.90;;;;;;4963952;28;20069;-87
2023/08/22 03:12:54;;;;;;;1.70;1.60;;;16.70;99.90;;;;;;4948167;28;20412;-87
2023/08/22 03:15:28;;;;;;;1.58;1.48;;;16.50;99.90;;;;;;4964438;28;20074;-87
2023/08/22 03:17:58;;;;;;;1.60;1.50;;;16.60;99.90;;;;;;4960216;28;20047;-87
2023/08/22 03:20:29;;;;;;;1.48;1.38;;;16.40;99.90;;;;;;4969715;28;20554;-86
2023/08/22 03:22:54;;;;;;;1.30;1.30;;;16.60;99.90;;;;;;4962660;28;20040;-87
2023/08/22 03:25:20;;;;;;;1.52;1.42;;;16.40;99.90;;;;;;4962877;28;20108;-87
2023/08/22 03:27:46;;;;;;;1.35;1.33;;;16.50;99.90;;;;;;4963107;28;20586;-87
2023/08/22 03:30:11;;;;;;;1.30;1.30;;;16.30;99.90;;;;;;4983897;28;20507;-87
2023/08/22 03:32:37;;;;;;;1.27;1.27;;;16.40;99.90;;;;;;4968091;28;20516;-87
2023/08/22 03:35:06;;;;;;;1.20;1.20;;;16.40;99.90;;;;;;4964845;28;20145;-87
2023/08/22 03:37:32;;;;;;;1.20;1.20;;;16.40;99.90;;;;;;4968255;28;20038;-86
2023/08/22 03:39:58;;;;;;;1.17;1.17;;;16.30;99.90;;;;;;4961541;28;20053;-86
2023/08/22 03:42:24;;;;;;;1.10;1.10;;;16.40;99.90;;;;;;4947404;28;20046;-85
2023/08/22 03:44:49;;;;;;;1.10;1.10;;;16.20;99.90;;;;;;4959592;28;20051;-85
2023/08/22 03:47:15;;;;;;;1.00;1.00;;;16.30;99.90;;;;;;4961697;28;20420;-85
2023/08/22 03:49:40;;;;;;;1.00;1.00;;;16.30;99.90;;;;;;4959081;28;20051;-84
2023/08/22 03:52:06;;;;;;;1.10;1.10;;;16.30;99.90;;;;;;4961049;28;20088;-85
2023/08/22 03:54:34;;;;;;;1.10;1.10;;;16.40;99.90;;;;;;4959353;28;20050;-85
2023/08/22 03:57:11;;;;;;;1.10;1.10;;;16.40;99.90;;;;;;4960785;28;20050;-85
2023/08/22 03:59:37;;;;;;;1.00;1.00;;;16.40;99.90;;;;;;4960134;28;20100;-86
2023/08/22 04:02:03;;;;;;;1.00;1.00;;;16.30;99.90;;;;;;4949601;28;20034;-86
2023/08/22 04:04:32;;;;;;;1.00;1.00;;;16.30;99.90;;;;;;4988187;28;20435;-85
2023/08/22 04:07:03;;;;;;;1.00;1.00;;;16.40;99.90;;;;;;4966327;28;20062;-85
2023/08/22 04:09:32;;;;;;;0.95;0.95;;;16.30;99.90;;;;;;4967655;28;20533;-85
2023/08/22 04:11:59;;;;;;;1.00;1.00;;;16.40;99.90;;;;;;4962829;28;20082;-85
2023/08/22 04:14:27;;;;;;;1.00;1.00;;;16.40;99.90;;;;;;4963983;28;20054;-85
2023/08/22 04:16:53;;;;;;;0.93;0.93;;;16.50;99.90;;;;;;4984879;28;20072;-85
2023/08/22 04:19:22;;;;;;;0.93;0.93;;;16.30;99.90;;;;;;4969434;28;21958;-85
2023/08/22 04:21:50;;;;;;;0.90;0.90;;;16.40;99.90;;;;;;4958519;28;20035;-86
2023/08/22 04:24:16;;;;;;;0.90;0.90;;;16.30;99.90;;;;;;4963759;28;20046;-84
2023/08/22 04:26:42;;;;;;;0.90;0.90;;;16.40;99.90;;;;;;4984718;28;20066;-84
2023/08/22 04:29:07;;;;;;;0.90;0.90;;;16.40;99.90;;;;;;4959277;28;20047;-85
2023/08/22 04:31:33;;;;;;;0.90;0.90;;;16.30;99.90;;;;;;4965752;28;20074;-85
2023/08/22 04:33:59;;;;;;;0.85;0.85;;;16.30;99.90;;;;;;4967332;28;20415;-86
2023/08/22 04:36:24;;;;;;;0.80;0.80;;;16.30;99.90;;;;;;4986386;28;20487;-85
2023/08/22 04:38:52;;;;;;;0.80;0.80;;;16.40;99.90;;;;;;4970344;28;20069;-85
2023/08/22 04:41:18;;;;;;;0.80;0.80;;;16.30;99.90;;;;;;4963389;28;20053;-85
2023/08/22 04:43:44;;;;;;;0.80;0.80;;;16.40;99.90;;;;;;4966680;28;20050;-85
2023/08/22 04:46:09;;;;;;;0.80;0.80;;;16.50;99.90;;;;;;4965369;28;20144;-86
2023/08/22 04:48:35;;;;;;;0.70;0.70;;;16.40;99.90;;;;;;4981890;28;20054;-85
2023/08/22 04:51:00;;;;;;;0.80;0.80;;;16.50;99.90;;;;;;4961382;28;20073;-85
2023/08/22 04:53:28;;;;;;;0.85;0.85;;;16.30;99.90;;;;;;4963501;28;22483;-85
2023/08/22 04:55:53;;;;;;;0.80;0.80;;;16.40;99.90;;;;;;4981840;28;20050;-85
2023/08/22 04:58:19;;;;;;;0.88;0.88;;;16.30;99.90;;;;;;4962830;28;20049;-85
2023/08/22 05:00:45;;;;;;;0.80;0.80;;;16.30;99.90;;;;;;4957434;28;20043;-85
2023/08/22 05:03:10;;;;;;;0.90;0.90;;;16.30;99.90;;;;;;4958230;28;20140;-84
2023/08/22 05:05:36;;;;;;;0.80;0.80;;;16.20;99.90;;;;;;4964501;28;20185;-85
2023/08/22 05:08:02;;;;;;;0.90;0.90;;;16.30;99.90;;;;;;4946578;28;20137;-85
2023/08/22 05:10:28;;;;;;;0.80;0.80;;;16.40;99.90;;;;;;4980097;28;20046;-86
2023/08/22 05:12:53;;;;;;;0.90;0.90;;;16.40;99.90;;;;;;4943704;28;20047;-85
2023/08/22 05:15:19;;;;;;;0.90;0.90;;;16.40;99.90;;;;;;4966650;28;20038;-87
2023/08/22 05:17:45;;;;;;;0.90;0.90;;;16.40;99.90;;;;;;4942364;28;20039;-83
2023/08/22 05:20:13;;;;;;;0.90;0.90;;;16.60;99.90;;;;;;4957472;28;20065;-83
2023/08/22 05:22:39;;;;;;;0.90;0.90;;;16.50;99.90;;;;;;4963592;28;20057;-84
2023/08/22 05:25:11;;;;;;;0.93;0.93;;;16.70;99.90;;;;;;4953801;28;20046;-84
2023/08/22 05:27:40;;;;;;;0.85;0.85;;;16.90;99.90;;;;;;4961926;28;20457;-86
2023/08/22 05:30:07;;;;;;;0.93;0.93;;;17.10;99.90;;;;;;4956109;28;20133;-85
2023/08/22 05:32:35;;;;;;;0.95;0.95;;;17.90;99.90;;;;;;4959326;28;20077;-86
2023/08/22 05:35:02;;;;;;;0.90;0.90;;;19.30;99.90;;;;;;4955128;28;20050;-85
2023/08/22 05:37:27;;;;;;;0.90;0.90;;;20.10;99.90;;;;;;4965681;28;20488;-86
2023/08/22 05:39:53;;;;;;;0.70;0.70;;;21.30;99.90;;;;;;4956030;28;20046;-89
2023/08/22 05:42:19;;;;;;;0.70;0.70;;;21.10;99.90;;;;;;4956915;28;20038;-84
2023/08/22 05:44:44;;;;;;;0.90;0.90;;;20.90;99.90;;;;;;4964197;28;20117;-84
2023/08/22 05:47:10;;;;;;;0.90;0.90;;;22.80;99.90;;;;;;4980466;28;20086;-86
2023/08/22 05:49:42;;;;;;;1.00;1.00;;;21.90;99.90;;;;;;4977832;28;20202;-85
2023/08/22 05:52:08;;;;;;;0.90;0.90;;;21.10;99.90;;;;;;4955370;28;20641;-87
2023/08/22 05:54:34;;;;;;;0.90;0.90;;;20.60;99.90;;;;;;4961947;28;20062;-84
2023/08/22 05:56:59;;;;;;;0.80;0.80;;;20.30;99.90;;;;;;4961624;28;20310;-84
2023/08/22 05:59:25;;;;;;;0.85;0.85;;;20.10;99.90;;;;;;4977557;28;20085;-84
2023/08/22 06:01:51;;;;;;;0.80;0.80;;;20.00;99.90;;;;;;4961142;28;20077;-84
2023/08/22 06:04:20;;;;;;;0.80;0.80;;;19.70;99.90;;;;;;4955980;28;20420;-85
2023/08/22 06:06:46;;;;;;;0.80;0.80;;;19.50;99.90;;;;;;4960066;28;20050;-84
2023/08/22 06:09:12;;;;;;;0.80;0.80;;;19.40;99.90;;;;;;4974247;28;20055;-83
2023/08/22 06:11:38;;;;;;;0.80;0.80;;;19.20;99.90;;;;;;4975844;28;20528;-84
2023/08/22 06:14:04;;;;;;;0.80;0.80;;;19.20;99.90;;;;;;4966794;28;20077;-84
2023/08/22 06:16:30;;;;;;;0.85;0.85;;;19.40;99.90;;;;;;4963044;28;20124;-85
2023/08/22 06:18:55;;;;;;;0.75;0.75;;;19.50;99.90;;;;;;4959259;28;20077;-84
2023/08/22 06:21:21;;;;;;;0.70;0.70;;;19.70;99.90;;;;;;4955805;28;20046;-83
2023/08/22 06:23:47;;;;;;;0.70;0.70;;;19.60;99.90;;;;;;4943988;28;20045;-84
2023/08/22 06:26:13;;;;;;;0.60;0.60;;;19.50;99.90;;;;;;4954127;28;20051;-85
2023/08/22 06:28:39;;;;;;;0.70;0.70;;;19.50;99.90;;;;;;4952563;28;20050;-86
2023/08/22 06:31:05;;;;;;;0.70;0.70;;;19.50;99.90;;;;;;4955122;28;20176;-86
2023/08/22 06:33:31;;;;;;;0.60;0.60;;;19.80;99.90;;;;;;4962116;28;20065;-85
2023/08/22 06:35:57;;;;;;;0.60;0.60;;;20.00;99.90;;;;;;4961914;28;20042;-84
2023/08/22 06:38:23;;;;;;;0.60;0.60;;;20.10;99.90;;;;;;4963840;28;20467;-84
2023/08/22 06:40:49;;;;;;;0.60;0.60;;;20.30;99.90;;;;;;4964730;28;20042;-84
2023/08/22 06:43:15;;;;;;;0.65;0.65;;;20.50;99.90;;;;;;4984779;28;20073;-83
2023/08/22 06:45:41;;;;;;;0.70;0.70;;;20.80;99.90;;;;;;4984644;28;20050;-84
2023/08/22 06:48:07;;;;;;;0.70;0.70;;;20.90;99.90;;;;;;4947298;28;20092;-84
2023/08/22 06:50:33;;;;;;;0.70;0.70;;;21.10;99.90;;;;;;4983131;28;20109;-83
2023/08/22 06:52:59;;;;;;;0.75;0.75;;;21.30;99.90;;;;;;4983304;28;20088;-84
2023/08/22 06:55:25;;;;;;;0.80;0.80;;;21.60;99.90;;;;;;4967522;28;20666;-84
2023/08/22 06:57:57;;;;;;;0.80;0.80;;;21.70;99.90;;;;;;4962641;28;20042;-85
2023/08/22 07:00:24;;;;;;;0.73;0.73;;;22.00;99.90;;;;;;4980256;28;20047;-86
2023/08/22 07:02:49;;;;;;;0.70;0.70;;;22.00;99.90;;;;;;4961320;28;20050;-87
2023/08/22 07:05:15;;;;;;;0.70;0.70;;;22.20;99.90;;;;;;4966415;28;20046;-86
2023/08/22 07:07:44;;;;;;;0.80;0.80;;;22.30;99.90;;;;;;4957643;28;20082;-88
2023/08/22 07:10:30;;;;;;;0.80;0.80;;;22.40;99.90;;;;;;4986861;28;20045;-89
2023/08/22 07:12:56;;;;;;;0.70;0.70;;;22.60;99.90;;;;;;4963073;28;20057;-86
2023/08/22 07:15:24;;;;;;;0.80;0.80;;;22.70;99.90;;;;;;4959633;28;20054;-88
2023/08/22 07:17:51;;;;;;;1.45;1.38;;;22.60;99.90;;;;;;4952837;28;20047;-87
2023/08/22 07:20:17;;;;;;;1.20;1.20;;;22.60;99.90;;;;;;4965473;28;20089;-87
2023/08/22 07:22:55;;;;;;;1.20;1.20;;;22.80;99.90;;;;;;4965032;28;20050;-89
2023/08/22 07:25:21;;;;;;;1.52;1.42;;;22.80;99.90;;;;;;4965536;28;20069;-87
2023/08/22 07:27:46;;;;;;;1.60;1.50;;;22.70;99.90;;;;;;4957824;28;20492;-86
2023/08/22 07:30:12;;;;;;;1.52;1.42;;;22.90;99.90;;;;;;4965832;28;20121;-86
2023/08/22 07:32:38;;;;;;;1.52;1.42;;;23.20;99.90;;;;;;4984951;28;20109;-85
2023/08/22 07:35:09;;;;;;;0.77;0.77;;;23.20;99.90;;;;;;4960108;28;20054;-90
2023/08/22 07:37:35;;;;;;;1.33;1.33;;;23.00;99.90;;;;;;4978437;28;20077;-87
2023/08/22 07:40:06;;;;;;;0.40;0.40;;;22.90;99.90;;;;;;4940722;28;20809;-87
2023/08/22 07:42:35;;;;;;;1.33;1.30;;;23.00;99.90;;;;;;4966730;28;20325;-86
2023/08/22 07:45:04;;;;;;;1.40;1.35;;;23.10;99.90;;;;;;4946579;28;20046;-88
2023/08/22 07:47:32;;;;;;;1.58;1.48;;;23.20;99.90;;;;;;4959055;28;20066;-87
2023/08/22 07:50:14;;;;;;;1.60;1.50;;;23.00;99.90;;;;;;4958395;28;20058;-89
2023/08/22 07:52:55;;;;;;;0.30;0.30;;;22.80;99.90;;;;;;4957664;28;20126;-88
2023/08/22 07:55:32;;;;;;;1.60;1.50;;;23.00;99.90;;;;;;4943695;28;20046;-90
2023/08/22 07:57:57;;;;;;;0.35;0.35;;;23.20;99.90;;;;;;4959087;28;20552;-87
2023/08/22 08:00:40;;;;;;;1.55;1.45;;;23.30;99.90;;;;;;4954152;28;20523;-86
2023/08/22 08:03:09;;;;;;;0.73;0.73;;;23.10;99.90;;;;;;4961279;28;20145;-87
2023/08/22 08:05:35;;;;;;;0.30;0.30;;;23.10;99.90;;;;;;4959834;28;20121;-86
2023/08/22 08:08:01;;;;;;;1.20;1.20;;;23.20;99.90;;;;;;4960013;28;20508;-83
2023/08/22 08:10:26;;;;;;;0.30;0.30;;;23.10;99.90;;;;;;4958245;28;20630;-83
2023/08/22 08:12:52;;;;;;;1.48;1.40;;;23.10;99.90;;;;;;4963780;28;20038;-84
2023/08/22 08:15:18;;;;;;;1.38;1.35;;;23.40;99.90;;;;;;4967442;28;20093;-85
2023/08/22 08:18:01;;;;;;;0.30;0.30;;;23.70;99.90;;;;;;4964733;28;20424;-87
2023/08/22 08:20:30;;;;;;;0.87;0.87;;;24.10;99.90;;;;;;4945458;28;20504;-86
2023/08/22 08:22:55;;;;;;;0.30;0.30;;;24.30;99.90;;;;;;4959513;28;20310;-85
2023/08/22 08:25:24;;;;;;;0.40;0.40;;;24.60;99.90;;;;;;4960120;28;20049;-88
2023/08/22 08:27:52;;;;;;;0.25;0.25;;;24.80;99.90;;;;;;4961396;28;20172;-86
2023/08/22 08:30:21;;;;;;;0.30;0.30;;;24.90;99.90;;;;;;4966756;28;20623;-86
2023/08/22 08:32:46;;;;;;;0.30;0.30;;;25.00;99.90;;;;;;4943917;28;20050;-86
2023/08/22 08:35:12;;;;;;;0.30;0.30;;;25.20;99.90;;;;;;4959931;28;20046;-85
2023/08/22 08:37:38;;;;;;;0.30;0.30;;;25.30;99.90;;;;;;4959397;28;20047;-86
2023/08/22 08:40:08;;;;;;;0.30;0.30;;;25.20;99.90;;;;;;4965269;28;20046;-88
2023/08/22 08:42:38;;;;;;;0.30;0.30;;;25.20;99.90;;;;;;4948125;28;20034;-88
2023/08/22 08:45:08;;;;;;;0.30;0.30;;;25.00;99.90;;;;;;4966531;28;20047;-89
2023/08/22 08:47:39;;;;;;;0.30;0.30;;;25.10;99.90;;;;;;4957743;28;20039;-87
2023/08/22 08:50:08;;;;;;;0.30;0.30;;;24.80;99.90;;;;;;4984656;28;20039;-89
2023/08/22 08:52:35;;;;;;;0.30;0.30;;;24.70;99.90;;;;;;4983658;28;20531;-91
2023/08/22 08:55:04;;;;;;;0.30;0.30;;;24.50;99.90;;;;;;4959876;28;20100;-88
2023/08/22 08:57:30;;;;;;;0.30;0.30;;;24.70;99.90;;;;;;4953672;28;20092;-90
2023/08/22 08:59:55;;;;;;;0.30;0.30;;;24.90;99.90;;;;;;4982367;28;20051;-87
2023/08/22 09:02:35;;;;;;;0.47;0.47;;;24.80;99.90;;;;;;4959205;28;20049;-95
2023/08/22 09:05:16;;;;;;;0.30;0.30;;;24.70;99.90;;;;;;4950722;28;20084;-88
2023/08/22 09:07:45;;;;;;;0.30;0.30;;;24.40;99.90;;;;;;4961681;28;20145;-90
2023/08/22 09:10:15;;;;;;;0.30;0.30;;;24.40;99.90;;;;;;4969996;28;20065;-90
2023/08/22 09:12:44;;;;;;;0.57;0.57;;;24.30;99.90;;;;;;4946217;28;20043;-88
2023/08/22 09:15:23;;;;;;;0.30;0.30;;;24.50;99.90;;;;;;4959455;28;20485;-90
2023/08/22 09:17:49;;;;;;;0.30;0.30;;;24.40;99.90;;;;;;4963192;28;20042;-91
2023/08/22 09:20:19;;;;;;;0.30;0.30;;;24.30;99.90;;;;;;4964706;28;20050;-88
2023/08/22 09:22:45;;;;;;;0.30;0.30;;;24.30;99.90;;;;;;4959174;28;20560;-89
2023/08/22 09:25:16;;;;;;;0.30;0.30;;;24.40;99.90;;;;;;4958897;28;20114;-87
2023/08/22 09:27:51;;;;;;;0.77;0.30;;;24.50;99.90;;;;;;4964191;28;20050;-88
2023/08/22 09:30:26;;;;;;;0.30;0.30;;;24.40;99.90;;;;;;4951971;28;20049;-89
2023/08/22 09:32:59;;;;;;;0.50;0.50;;;24.40;99.90;;;;;;4945414;28;20141;-90
2023/08/22 09:36:01;;;;;;;0.30;0.30;;;24.30;99.90;;;;;;4955429;28;20061;-89
2023/08/22 09:38:58;;;;;;;0.90;0.90;;;24.20;99.90;;;;;;4959779;28;20135;-95
2023/08/22 09:41:35;;;;;;;0.32;0.32;;;24.00;99.90;;;;;;4954920;28;20074;-91
2023/08/22 09:44:06;;;;;;;0.70;0.70;;;24.00;99.90;;;;;;4951328;28;20551;-89
2023/08/22 09:46:53;;;;;;;0.30;0.30;;;23.90;99.90;;;;;;4944520;28;20066;-90
2023/08/22 09:49:22;;;;;;;0.30;0.30;;;24.10;99.90;;;;;;4959802;28;20477;-88
2023/08/22 09:51:53;;;;;;;0.30;0.30;;;24.30;99.90;;;;;;4939869;28;20065;-88
2023/08/22 09:54:22;;;;;;;0.52;0.52;;;24.60;99.90;;;;;;4947448;28;20096;-90
2023/08/22 09:56:57;;;;;;;0.30;0.30;;;24.70;99.90;;;;;;4959533;28;20566;-89
2023/08/22 10:00:04;;;;;;;0.47;0.47;;;25.00;99.90;;;;;;4977359;28;20054;-88
2023/08/22 10:02:32;;;;;;;0.30;0.30;;;25.20;99.90;;;;;;4942304;28;20045;-86
2023/08/22 10:04:59;;;;;;;0.30;0.30;;;25.20;99.90;;;;;;4956800;28;20129;-85
2023/08/22 10:07:28;;;;;;;0.30;0.30;;;25.20;99.90;;;;;;4980442;28;20050;-86
2023/08/22 10:09:54;;;;;;;0.30;0.30;;;25.50;99.90;;;;;;4956985;28;20053;-87
2023/08/22 10:12:26;;;;;;;0.30;0.30;;;25.30;99.90;;;;;;4939665;28;20047;-88
2023/08/22 10:14:59;;;;;;;0.30;0.30;;;25.20;99.90;;;;;;4961371;28;20089;-89
2023/08/22 10:17:29;;;;;;;0.30;0.30;;;25.30;99.90;;;;;;4944064;28;20129;-90
2023/08/22 10:20:11;;;;;;;0.30;0.30;;;25.30;99.90;;;;;;4953544;28;20055;-90
2023/08/22 10:22:36;;;;;;;0.30;0.30;;;25.80;99.90;;;;;;4958247;28;20046;-90
2023/08/22 10:25:15;;;;;;;0.30;0.30;;;26.00;99.90;;;;;;4963909;28;20558;-90
2023/08/22 10:28:03;;;;;;;0.30;0.30;;;26.20;99.90;;;;;;4958728;28;20038;-87
2023/08/22 10:30:33;;;;;;;0.30;0.30;;;26.40;99.90;;;;;;4951323;28;20407;-89
2023/08/22 10:33:08;;;;;;;0.30;0.30;;;26.30;99.90;;;;;;4964120;28;20054;-90
2023/08/22 10:35:34;;;;;;;0.30;0.30;;;25.90;99.90;;;;;;4984142;28;20281;-88
2023/08/22 10:38:09;;;;;;;0.30;0.30;;;25.70;99.90;;;;;;4961250;28;20080;-91
2023/08/22 10:40:52;;;;;;;0.20;0.20;;;26.20;99.90;;;;;;4946370;28;20399;-86
2023/08/22 10:43:44;;;;;;;0.30;0.30;;;26.50;99.90;;;;;;4966093;28;20046;-88
2023/08/22 10:46:13;;;;;;;0.30;0.30;;;26.60;99.90;;;;;;4940602;28;20058;-91
2023/08/22 10:49:04;;;;;;;0.30;0.30;;;26.50;99.90;;;;;;4953478;28;20125;-87
2023/08/22 10:51:43;;;;;;;0.30;0.30;;;26.40;99.90;;;;;;4961110;28;20047;-89
2023/08/22 10:54:16;;;;;;;0.30;0.30;;;26.50;99.90;;;;;;4980486;28;20042;-88
2023/08/22 10:56:43;;;;;;;0.20;0.20;;;26.60;99.90;;;;;;4942946;28;20053;-88
2023/08/22 10:59:12;;;;;;;0.20;0.20;;;26.90;99.90;;;;;;4965001;28;20046;-89
2023/08/22 11:02:13;;;;;;;0.30;0.30;;;27.00;99.90;;;;;;4961497;28;20050;-91
2023/08/22 11:04:48;;;;;;;0.30;0.30;;;27.20;99.90;;;;;;4959170;28;20227;-89
2023/08/22 11:07:23;;;;;;;0.30;0.30;;;27.50;99.90;;;;;;4951495;28;20439;-87
2023/08/22 11:09:53;;;;;;;0.30;0.30;;;27.90;99.90;;;;;;4947140;28;20073;-87
2023/08/22 11:12:23;;;;;;;0.30;0.30;;;27.80;99.90;;;;;;4933926;28;20050;-86
2023/08/22 11:14:54;;;;;;;0.30;0.30;;;27.50;99.90;;;;;;4965821;28;20062;-88
2023/08/22 11:17:21;;;;;;;0.20;0.20;;;27.50;99.90;;;;;;4959910;28;20050;-83
2023/08/22 11:19:57;;;;;;;0.30;0.30;;;27.50;99.90;;;;;;4967122;28;20161;-85
2023/08/22 11:22:23;;;;;;;0.30;0.30;;;26.60;99.90;;;;;;4949680;28;20050;-84
2023/08/22 11:24:54;;;;;;;0.30;0.30;;;25.80;99.90;;;;;;4984773;28;20054;-85
2023/08/22 11:27:19;;;;;;;0.30;0.30;;;25.30;99.90;;;;;;4944130;28;20042;-85
2023/08/22 11:30:00;;;;;;;0.30;0.30;;;25.20;99.90;;;;;;4984128;28;20150;-88
2023/08/22 11:32:34;;;;;;;0.30;0.30;;;25.70;99.90;;;;;;4964995;28;20062;-85
2023/08/22 11:35:07;;;;;;;0.30;0.30;;;25.40;99.90;;;;;;4978526;28;20121;-85
2023/08/22 11:37:35;;;;;;;0.30;0.30;;;25.60;99.90;;;;;;4983060;28;20337;-83
2023/08/22 11:40:04;;;;;;;0.20;0.20;;;25.60;99.90;;;;;;4962365;28;20145;-87
2023/08/22 11:42:34;;;;;;;0.30;0.30;;;26.20;99.90;;;;;;4963358;28;20046;-91
2023/08/22 11:45:11;;;;;;;0.30;0.30;;;26.50;99.90;;;;;;4949688;28;20046;-88
2023/08/22 11:47:46;;;;;;;0.30;0.30;;;26.90;99.90;;;;;;4967333;28;20148;-88
2023/08/22 11:53:31;;;;;;;0.30;0.30;;;27.10;99.90;;;;;;4893335;28;20061;-91
2023/08/22 11:56:22;;;;;;;0.30;0.30;;;27.10;99.90;;;;;;4947393;28;20077;-88
2023/08/22 11:58:52;;;;;;;0.30;0.30;;;27.00;99.90;;;;;;4933954;28;20523;-85
2023/08/22 12:01:28;;;;;;;0.25;0.25;;;26.90;99.90;;;;;;4963583;28;20085;-88
2023/08/22 12:04:00;;;;;;;0.30;0.30;;;26.70;99.90;;;;;;4948492;28;20062;-89
2023/08/22 12:06:29;;;;;;;0.30;0.30;;;26.60;99.90;;;;;;4966943;28;20199;-90
2023/08/22 12:09:00;;;;;;;0.30;0.30;;;26.50;99.90;;;;;;4964983;28;20039;-89
2023/08/22 12:11:29;;;;;;;0.30;0.30;;;26.20;99.90;;;;;;4974271;28;20061;-87
2023/08/22 12:14:00;;;;;;;0.30;0.30;;;26.30;99.90;;;;;;4967619;28;20051;-90
2023/08/22 12:16:26;;;;;;;0.30;0.30;;;26.60;99.90;;;;;;4951499;28;20062;-90
2023/08/22 12:19:16;;;;;;;0.30;0.30;;;26.90;99.90;;;;;;4950440;28;20594;-87
2023/08/22 12:21:51;;;;;;;0.30;0.30;;;27.20;99.90;;;;;;4950943;28;20092;-89
2023/08/22 12:24:20;;;;;;;0.30;0.30;;;27.60;99.90;;;;;;4960401;28;20077;-90
2023/08/22 12:26:46;;;;;;;0.30;0.30;;;27.70;99.90;;;;;;4953751;28;20058;-85
2023/08/22 12:29:11;;;;;;;0.30;0.30;;;27.80;99.90;;;;;;4958814;28;20061;-92
2023/08/22 12:31:37;;;;;;;0.30;0.30;;;28.00;99.90;;;;;;4962423;28;20047;-87
2023/08/22 12:34:03;;;;;;;0.30;0.30;;;28.00;99.90;;;;;;4963276;28;20153;-87
2023/08/22 12:36:28;;;;;;;0.30;0.30;;;28.10;99.90;;;;;;4963756;28;20074;-87
2023/08/22 12:38:57;;;;;;;0.30;0.30;;;28.00;99.90;;;;;;4960777;28;20656;-88
2023/08/22 12:41:22;;;;;;;0.30;0.30;;;28.10;99.90;;;;;;4962811;28;20066;-91
2023/08/22 12:44:01;;;;;;;0.30;0.30;;;28.20;99.90;;;;;;4943002;28;20064;-87
2023/08/22 12:46:33;;;;;;;0.22;0.22;;;27.80;99.90;;;;;;4947318;28;20677;-86
2023/08/22 12:49:22;;;;;;;0.30;0.30;;;28.10;99.90;;;;;;4942813;28;20138;-88
2023/08/22 12:51:50;;;;;;;0.40;0.40;;;28.00;99.90;;;;;;4964030;28;20447;-85
2023/08/22 12:54:16;;;;;;;0.25;0.25;;;28.10;99.90;;;;;;4954753;28;20593;-87
2023/08/22 12:56:42;;;;;;;0.30;0.30;;;28.30;99.90;;;;;;4963407;28;20074;-85
2023/08/22 12:59:07;;;;;;;0.22;0.22;;;28.40;99.90;;;;;;4966570;28;20058;-86
2023/08/22 13:01:34;;;;;;;0.20;0.20;;;28.40;99.90;;;;;;4961987;28;20042;-87
2023/08/22 13:04:00;;;;;;;0.30;0.30;;;28.30;99.90;;;;;;4969066;28;20061;-84